createdAt,value
2023-04-19T00:01:05.754Z,6.70
2023-04-19T00:03:33.891Z,6.63
2023-04-19T00:06:02.511Z,6.30
2023-04-19T00:08:31.406Z,6.33
2023-04-19T00:11:00.248Z,6.15
2023-04-19T00:13:28.036Z,6.30
2023-04-19T00:15:55.572Z,6.35
2023-04-19T00:18:23.402Z,6.70
2023-04-19T00:20:51.218Z,6.67
2023-04-19T00:23:18.784Z,6.70
2023-04-19T00:25:48.113Z,6.22
2023-04-19T00:28:16.302Z,6.53
2023-04-19T00:30:43.883Z,6.60
2023-04-19T00:33:13.339Z,6.07
2023-04-19T00:35:41.188Z,6.68
2023-04-19T00:38:08.797Z,5.43
2023-04-19T00:40:37.064Z,6.38
2023-04-19T00:43:05.949Z,6.00
2023-04-19T00:45:33.890Z,5.83
2023-04-19T00:48:02.438Z,6.25
2023-04-19T00:50:30.504Z,6.47
2023-04-19T00:52:58.600Z,6.57
2023-04-19T00:55:26.806Z,6.25
2023-04-19T00:57:54.739Z,7.40
2023-04-19T01:00:23.758Z,6.53
2023-04-19T01:02:51.798Z,6.50
2023-04-19T01:05:19.471Z,7.22
2023-04-19T01:07:47.296Z,6.90
2023-04-19T01:10:16.158Z,7.23
2023-04-19T01:12:43.705Z,7.72
2023-04-19T01:15:11.854Z,7.50
2023-04-19T01:17:41.380Z,8.07
2023-04-19T01:20:09.546Z,7.35
2023-04-19T01:22:38.658Z,7.83
2023-04-19T01:25:07.422Z,8.10
2023-04-19T01:27:35.008Z,7.40
2023-04-19T01:30:02.593Z,6.70
2023-04-19T01:32:30.569Z,8.38
2023-04-19T01:34:58.146Z,7.50
2023-04-19T01:37:26.985Z,8.18
2023-04-19T01:39:56.613Z,7.65
2023-04-19T01:42:24.110Z,8.00
2023-04-19T01:44:51.787Z,7.20
2023-04-19T01:47:19.425Z,7.87
2023-04-19T01:49:46.940Z,7.47
2023-04-19T01:52:15.113Z,7.63
2023-04-19T01:54:42.819Z,7.72
2023-04-19T01:57:11.898Z,7.78
2023-04-19T01:59:39.411Z,7.30
2023-04-19T02:02:07.926Z,8.63
2023-04-19T02:04:35.721Z,8.40
2023-04-19T02:07:03.307Z,7.78
2023-04-19T02:09:31.183Z,9.00
2023-04-19T02:11:58.754Z,8.63
2023-04-19T02:14:27.644Z,7.70
2023-04-19T02:16:55.477Z,8.70
2023-04-19T02:19:23.234Z,6.95
2023-04-19T02:21:50.802Z,8.43
2023-04-19T02:24:18.382Z,7.37
2023-04-19T02:26:46.024Z,6.95
2023-04-19T02:29:13.717Z,7.30
2023-04-19T02:31:42.734Z,7.55
2023-04-19T02:34:10.331Z,7.65
2023-04-19T02:36:37.899Z,6.97
2023-04-19T02:39:05.949Z,7.88
2023-04-19T02:41:33.620Z,7.85
2023-04-19T02:44:01.180Z,6.68
2023-04-19T02:46:28.906Z,7.50
2023-04-19T02:48:57.927Z,6.57
2023-04-19T02:51:27.056Z,6.22
2023-04-19T02:53:54.710Z,4.78
2023-04-19T02:56:22.293Z,4.55
2023-04-19T02:58:49.902Z,3.50
2023-04-19T03:01:17.572Z,4.10
2023-04-19T03:03:45.439Z,3.55
2023-04-19T03:06:15.001Z,2.85
2023-04-19T03:08:42.731Z,2.70
2023-04-19T03:11:10.345Z,3.38
2023-04-19T03:13:37.925Z,2.23
2023-04-19T03:16:05.909Z,2.60
2023-04-19T03:18:33.585Z,3.03
2023-04-19T03:21:01.342Z,2.30
2023-04-19T03:23:30.505Z,1.42
2023-04-19T03:25:58.121Z,2.70
2023-04-19T03:28:25.825Z,1.42
2023-04-19T03:30:53.964Z,2.22
2023-04-19T03:33:21.777Z,1.67
2023-04-19T03:35:50.262Z,1.52
2023-04-19T03:38:17.965Z,1.87
2023-04-19T03:40:47.238Z,2.13
2023-04-19T03:43:15.076Z,1.30
2023-04-19T03:45:42.653Z,1.67
2023-04-19T03:48:10.360Z,1.38
2023-04-19T03:50:37.988Z,1.00
2023-04-19T03:53:05.883Z,0.73
2023-04-19T03:55:33.486Z,1.00
2023-04-19T03:58:02.479Z,0.90
2023-04-19T04:00:31.309Z,0.75
2023-04-19T04:02:59.129Z,1.10
2023-04-19T04:05:28.519Z,1.13
2023-04-19T04:07:56.340Z,0.82
2023-04-19T04:10:23.950Z,0.52
2023-04-19T04:12:51.499Z,0.95
2023-04-19T04:15:20.547Z,1.20
2023-04-19T04:17:48.259Z,0.98
2023-04-19T04:20:16.651Z,0.80
2023-04-19T04:22:46.145Z,0.57
2023-04-19T04:25:13.842Z,0.85
2023-04-19T04:27:41.916Z,0.83
2023-04-19T04:30:10.172Z,0.90
2023-04-19T04:32:41.207Z,1.20
2023-04-19T04:35:09.593Z,0.57
2023-04-19T04:37:37.732Z,0.77
2023-04-19T04:40:06.418Z,0.60
2023-04-19T04:42:34.146Z,1.00
2023-04-19T04:45:01.766Z,0.85
2023-04-19T04:47:32.071Z,0.75
2023-04-19T04:50:01.245Z,0.88
2023-04-19T04:52:28.986Z,1.00
2023-04-19T04:54:56.689Z,1.48
2023-04-19T04:57:24.501Z,0.70
2023-04-19T04:59:52.439Z,0.73
2023-04-19T05:02:20.127Z,0.50
2023-04-19T05:04:47.759Z,1.03
2023-04-19T05:07:17.374Z,0.75
2023-04-19T05:09:45.486Z,0.65
2023-04-19T05:12:13.080Z,1.05
2023-04-19T05:14:40.662Z,0.20
2023-04-19T05:17:08.475Z,0.70
2023-04-19T05:19:36.032Z,0.80
2023-04-19T05:22:03.865Z,0.60
2023-04-19T05:24:32.866Z,1.30
2023-04-19T05:27:02.112Z,0.77
2023-04-19T05:29:29.653Z,0.33
2023-04-19T05:31:58.667Z,0.40
2023-04-19T05:34:26.423Z,0.35
2023-04-19T05:36:54.129Z,0.90
2023-04-19T05:39:21.723Z,1.15
2023-04-19T05:41:50.584Z,0.50
2023-04-19T05:44:18.288Z,0.90
2023-04-19T05:46:46.057Z,0.60
2023-04-19T05:49:13.689Z,1.08
2023-04-19T05:51:41.341Z,0.50
2023-04-19T05:54:12.572Z,0.83
2023-04-19T05:56:40.301Z,0.80
2023-04-19T05:59:11.541Z,0.73
2023-04-19T06:01:39.285Z,0.88
2023-04-19T06:04:07.182Z,0.63
2023-04-19T06:06:35.108Z,0.70
2023-04-19T06:09:03.070Z,0.90
2023-04-19T06:11:38.825Z,1.00
2023-04-19T06:14:17.580Z,0.60
2023-04-19T06:16:45.459Z,1.30
2023-04-19T06:19:13.559Z,1.03
2023-04-19T06:21:41.652Z,1.33
2023-04-19T06:24:09.439Z,0.90
2023-04-19T06:26:37.029Z,0.80
2023-04-19T06:29:05.107Z,0.90
2023-04-19T06:31:34.392Z,1.20
2023-04-19T06:34:01.925Z,1.10
2023-04-19T06:36:29.911Z,0.73
2023-04-19T06:38:57.414Z,1.27
2023-04-19T06:41:24.895Z,1.38
2023-04-19T06:43:52.880Z,1.10
2023-04-19T06:46:20.558Z,1.15
2023-04-19T06:48:49.571Z,1.02
2023-04-19T06:51:17.379Z,1.20
2023-04-19T06:53:45.998Z,0.95
2023-04-19T06:56:13.719Z,1.10
2023-04-19T06:58:41.486Z,1.05
2023-04-19T07:01:09.066Z,0.75
2023-04-19T07:03:36.807Z,0.90
2023-04-19T07:06:06.666Z,1.73
2023-04-19T07:08:48.873Z,0.93
2023-04-19T07:11:18.055Z,0.93
2023-04-19T07:13:46.559Z,0.98
2023-04-19T07:16:15.194Z,1.05
2023-04-19T07:18:43.941Z,1.50
2023-04-19T07:21:13.045Z,0.70
2023-04-19T07:23:43.040Z,0.82
2023-04-19T07:26:10.961Z,0.80
2023-04-19T07:28:40.030Z,1.13
2023-04-19T07:31:07.852Z,0.85
2023-04-19T07:33:36.200Z,1.27
2023-04-19T07:36:04.172Z,1.88
2023-04-19T07:38:33.253Z,1.23
2023-04-19T07:41:01.213Z,0.63
2023-04-19T07:43:30.733Z,1.63
2023-04-19T07:45:58.515Z,1.77
2023-04-19T07:48:26.301Z,1.15
2023-04-19T07:50:53.933Z,1.45
2023-04-19T07:53:21.456Z,0.98
2023-04-19T07:55:51.845Z,1.08
2023-04-19T07:58:19.539Z,1.57
2023-04-19T08:00:47.065Z,0.73
2023-04-19T08:03:15.907Z,1.10
2023-04-19T08:05:44.711Z,1.10
2023-04-19T08:08:12.472Z,0.98
2023-04-19T08:10:40.126Z,1.93
2023-04-19T08:13:09.107Z,1.23
2023-04-19T08:16:20.292Z,0.82
2023-04-19T08:18:24.555Z,1.33
2023-04-19T08:20:52.128Z,1.17
2023-04-19T08:23:25.785Z,0.80
2023-04-19T08:25:55.523Z,1.52
2023-04-19T08:28:24.549Z,1.05
2023-04-19T08:30:52.145Z,1.60
2023-04-19T08:33:19.909Z,0.82
2023-04-19T08:35:47.625Z,1.07
2023-04-19T08:38:15.974Z,0.88
2023-04-19T08:40:47.242Z,0.80
2023-04-19T08:43:15.935Z,0.85
2023-04-19T08:45:47.316Z,1.50
2023-04-19T08:48:16.316Z,0.90
2023-04-19T08:51:00.482Z,1.08
2023-04-19T08:53:30.001Z,0.75
2023-04-19T08:58:52.024Z,1.45
2023-04-19T09:04:03.329Z,0.73
2023-04-19T09:06:38.312Z,1.58
2023-04-19T09:09:29.221Z,1.08
2023-04-19T09:12:03.070Z,1.25
2023-04-19T09:14:31.023Z,0.80
2023-04-19T09:17:16.889Z,0.82
2023-04-19T09:19:49.944Z,0.95
2023-04-19T09:22:18.536Z,0.80
2023-04-19T09:25:27.784Z,2.00
2023-04-19T09:27:34.880Z,1.40
2023-04-19T09:30:04.817Z,0.98
2023-04-19T09:32:48.276Z,1.13
2023-04-19T09:35:17.793Z,1.30
2023-04-19T09:38:05.565Z,0.70
2023-04-19T09:40:34.494Z,0.87
2023-04-19T09:45:43.749Z,0.93
2023-04-19T09:48:12.044Z,0.80
2023-04-19T09:50:59.078Z,1.15
2023-04-19T09:53:29.251Z,1.80
2023-04-19T09:56:01.949Z,0.95
2023-04-19T10:01:13.256Z,1.10
2023-04-19T10:03:43.818Z,0.90
2023-04-19T10:08:48.696Z,1.15
2023-04-19T10:11:17.741Z,1.67
2023-04-19T10:13:46.848Z,1.08
2023-04-19T10:16:19.386Z,1.45
2023-04-19T10:18:47.781Z,1.47
2023-04-19T10:21:17.344Z,1.63
2023-04-19T10:23:45.510Z,1.40
2023-04-19T10:26:13.283Z,1.15
2023-04-19T10:28:42.749Z,1.58
2023-04-19T10:31:12.978Z,0.70
2023-04-19T10:33:40.984Z,0.80
2023-04-19T10:36:10.290Z,1.17
2023-04-19T10:38:40.445Z,1.25
2023-04-19T10:41:16.080Z,1.15
2023-04-19T10:43:46.076Z,1.47
2023-04-19T10:46:18.034Z,0.95
2023-04-19T10:48:54.582Z,1.45
2023-04-19T10:51:23.265Z,1.10
2023-04-19T10:53:53.594Z,1.15
2023-04-19T10:56:22.791Z,0.77
2023-04-19T10:59:25.409Z,1.55
2023-04-19T11:01:55.737Z,0.90
2023-04-19T11:04:27.417Z,1.40
2023-04-19T11:07:02.832Z,0.95
2023-04-19T11:09:34.395Z,1.30
2023-04-19T11:12:03.056Z,1.27
2023-04-19T11:14:35.396Z,1.02
2023-04-19T11:17:05.300Z,0.95
2023-04-19T11:19:32.904Z,0.82
2023-04-19T11:22:01.080Z,1.17
2023-04-19T11:24:28.890Z,1.52
2023-04-19T11:26:59.206Z,1.27
2023-04-19T11:29:26.789Z,0.75
2023-04-19T11:31:54.384Z,1.33
2023-04-19T11:34:23.815Z,1.07
2023-04-19T11:36:52.124Z,0.70
2023-04-19T11:39:19.920Z,1.40
2023-04-19T11:41:48.354Z,1.65
2023-04-19T11:44:20.307Z,1.40
2023-04-19T11:47:01.429Z,1.40
2023-04-19T11:49:30.396Z,1.75
2023-04-19T11:51:59.483Z,1.27
2023-04-19T11:54:27.889Z,1.52
2023-04-19T11:57:02.011Z,1.20
2023-04-19T11:59:31.169Z,1.30
2023-04-19T12:02:05.991Z,1.10
2023-04-19T12:04:33.916Z,1.17
2023-04-19T12:07:02.556Z,1.30
2023-04-19T12:09:30.569Z,1.00
2023-04-19T12:11:58.413Z,1.47
2023-04-19T12:14:27.192Z,1.42
2023-04-19T12:17:13.777Z,1.20
2023-04-19T12:19:46.308Z,1.33
2023-04-19T12:22:15.458Z,1.17
2023-04-19T12:24:43.575Z,1.10
2023-04-19T12:27:12.690Z,1.25
2023-04-19T12:29:40.515Z,1.50
2023-04-19T12:32:08.385Z,1.45
2023-04-19T12:34:37.532Z,1.45
2023-04-19T12:37:05.526Z,1.10
2023-04-19T12:39:33.041Z,1.17
2023-04-19T12:42:01.211Z,1.67
2023-04-19T12:44:28.893Z,1.48
2023-04-19T12:46:57.762Z,1.20
2023-04-19T12:49:25.601Z,0.90
2023-04-19T12:51:57.027Z,1.33
2023-04-19T12:54:25.070Z,1.73
2023-04-19T12:56:56.190Z,0.90
2023-04-19T12:59:23.852Z,1.20
2023-04-19T13:01:52.075Z,1.03
2023-04-19T13:04:21.524Z,1.08
2023-04-19T13:06:49.425Z,1.83
2023-04-19T13:09:19.033Z,1.17
2023-04-19T13:11:46.749Z,0.80
2023-04-19T13:14:14.844Z,1.20
2023-04-19T13:16:42.856Z,1.55
2023-04-19T13:19:10.761Z,1.10
2023-04-19T13:21:38.373Z,1.42
2023-04-19T13:24:06.204Z,0.90
2023-04-19T13:29:21.733Z,0.80
2023-04-19T13:31:50.158Z,0.70
2023-04-19T13:34:18.925Z,1.17
2023-04-19T13:36:48.680Z,0.60
2023-04-19T13:39:17.492Z,1.03
2023-04-19T13:41:46.503Z,0.75
2023-04-19T13:44:14.261Z,0.90
2023-04-19T13:46:42.552Z,1.02
2023-04-19T13:49:10.090Z,1.33
2023-04-19T13:51:49.039Z,0.90
2023-04-19T13:54:19.350Z,0.95
2023-04-19T13:56:51.978Z,1.33
2023-04-19T13:59:21.061Z,1.00
2023-04-19T14:01:48.780Z,0.90
2023-04-19T14:04:17.856Z,0.73
2023-04-19T14:06:46.004Z,0.88
2023-04-19T14:09:13.588Z,0.80
2023-04-19T14:11:41.549Z,1.25
2023-04-19T14:14:10.638Z,0.90
2023-04-19T14:16:38.387Z,1.00
2023-04-19T14:19:05.994Z,1.50
2023-04-19T14:21:33.681Z,0.90
2023-04-19T14:24:01.232Z,1.08
2023-04-19T14:26:28.878Z,0.93
2023-04-19T14:28:56.488Z,0.90
2023-04-19T14:31:25.560Z,0.82
2023-04-19T14:33:53.318Z,1.05
2023-04-19T14:36:21.061Z,1.08
2023-04-19T14:38:48.727Z,0.68
2023-04-19T14:41:16.463Z,1.20
2023-04-19T14:43:44.035Z,0.85
2023-04-19T14:46:11.695Z,0.77
2023-04-19T14:48:40.676Z,0.85
2023-04-19T14:51:08.311Z,1.13
2023-04-19T14:53:35.949Z,0.90
2023-04-19T14:56:05.030Z,1.48
2023-04-19T14:58:32.933Z,1.05
2023-04-19T15:01:00.697Z,0.60
2023-04-19T15:03:28.481Z,1.35
2023-04-19T15:05:57.930Z,0.67
2023-04-19T15:08:30.659Z,1.40
2023-04-19T15:10:58.961Z,0.90
2023-04-19T15:13:26.846Z,1.02
2023-04-19T15:15:54.578Z,0.95
2023-04-19T15:18:22.482Z,1.33
2023-04-19T15:20:50.093Z,0.85
2023-04-19T15:23:19.086Z,1.27
2023-04-19T15:25:47.608Z,1.00
2023-04-19T15:28:16.018Z,0.93
2023-04-19T15:30:43.619Z,0.50
2023-04-19T15:33:11.525Z,1.08
2023-04-19T15:35:39.087Z,0.63
2023-04-19T15:38:06.659Z,1.13
2023-04-19T15:40:38.615Z,1.00
2023-04-19T15:43:06.253Z,0.90
2023-04-19T15:45:33.784Z,0.80
2023-04-19T15:48:01.633Z,0.80
2023-04-19T15:50:29.228Z,0.95
2023-04-19T15:52:56.782Z,1.00
2023-04-19T15:55:24.619Z,0.93
2023-04-19T15:57:54.357Z,0.68
2023-04-19T16:00:22.668Z,0.70
2023-04-19T16:02:50.628Z,0.73
2023-04-19T16:05:18.228Z,0.75
2023-04-19T16:07:46.318Z,0.70
2023-04-19T16:10:15.328Z,0.95
2023-04-19T16:12:45.432Z,0.90
2023-04-19T16:15:14.555Z,1.10
2023-04-19T16:17:42.525Z,0.77
2023-04-19T16:20:10.672Z,0.90
2023-04-19T16:22:38.429Z,0.70
2023-04-19T16:25:06.636Z,0.77
2023-04-19T16:27:34.236Z,0.63
2023-04-19T16:30:01.830Z,0.77
2023-04-19T16:32:31.199Z,0.90
2023-04-19T16:34:58.891Z,0.65
2023-04-19T16:37:26.533Z,0.75
2023-04-19T16:39:54.624Z,0.63
2023-04-19T16:42:22.500Z,0.85
2023-04-19T16:44:50.077Z,0.60
2023-04-19T16:47:18.012Z,0.75
2023-04-19T16:49:47.919Z,1.15
2023-04-19T16:52:16.014Z,0.93
2023-04-19T16:54:44.833Z,0.63
2023-04-19T16:57:12.626Z,0.70
2023-04-19T16:59:40.241Z,0.73
2023-04-19T17:02:09.721Z,0.40
2023-04-19T17:04:37.719Z,0.80
2023-04-19T17:07:08.644Z,0.50
2023-04-19T17:09:36.477Z,0.97
2023-04-19T17:12:04.428Z,0.57
2023-04-19T17:14:32.242Z,0.73
2023-04-19T17:17:00.235Z,0.60
2023-04-19T17:19:30.206Z,0.40
2023-04-19T17:21:58.679Z,0.90
2023-04-19T17:24:28.428Z,0.57
2023-04-19T17:26:56.961Z,1.00
2023-04-19T17:29:24.503Z,0.50
2023-04-19T17:31:52.368Z,0.50
2023-04-19T17:34:20.586Z,0.70
2023-04-19T17:36:48.144Z,0.40
2023-04-19T17:39:16.576Z,0.50
2023-04-19T17:41:46.193Z,0.35
2023-04-19T17:44:13.873Z,0.55
2023-04-19T17:46:41.793Z,0.73
2023-04-19T17:49:09.960Z,0.60
2023-04-19T17:51:37.587Z,0.70
2023-04-19T17:54:05.584Z,0.47
2023-04-19T17:56:33.132Z,0.45
2023-04-19T17:59:03.814Z,0.30
2023-04-19T18:01:32.133Z,0.47
2023-04-19T18:04:00.161Z,0.50
2023-04-19T18:06:28.989Z,0.32
2023-04-19T18:08:56.719Z,0.35
2023-04-19T18:11:25.282Z,0.47
2023-04-19T18:13:54.605Z,0.50
2023-04-19T18:16:23.842Z,0.30
2023-04-19T18:18:51.419Z,0.40
2023-04-19T18:21:19.474Z,0.30
2023-04-19T18:23:47.275Z,0.40
2023-04-19T18:26:15.158Z,0.52
2023-04-19T18:28:42.701Z,0.40
2023-04-19T18:31:10.656Z,0.40
2023-04-19T18:33:39.701Z,0.55
2023-04-19T18:36:07.619Z,0.53
2023-04-19T18:38:35.282Z,0.45
2023-04-19T18:41:02.826Z,0.35
2023-04-19T18:43:31.106Z,0.30
2023-04-19T18:46:00.238Z,0.50
2023-04-19T18:48:29.242Z,0.30
2023-04-19T18:50:59.485Z,0.40
2023-04-19T18:53:28.516Z,0.40
2023-04-19T18:55:57.576Z,0.50
2023-04-19T18:58:25.406Z,0.35
2023-04-19T19:00:53.196Z,0.60
2023-04-19T19:03:52.580Z,0.40
2023-04-19T19:06:13.089Z,0.40
2023-04-19T19:08:40.881Z,0.38
2023-04-19T19:11:29.194Z,0.50
2023-04-19T19:13:56.503Z,0.63
2023-04-19T19:16:25.388Z,0.45
2023-04-19T19:18:53.309Z,0.20
2023-04-19T19:21:22.693Z,0.40
2023-04-19T19:23:52.487Z,0.20
2023-04-19T19:26:20.247Z,0.50
2023-04-19T19:28:48.195Z,0.50
2023-04-19T19:31:16.320Z,0.20
2023-04-19T19:36:14.916Z,0.30
2023-04-19T19:38:44.108Z,0.50
2023-04-19T19:43:43.604Z,0.30
2023-04-19T19:46:11.236Z,0.85
2023-04-19T19:48:42.363Z,0.57
2023-04-19T19:51:33.759Z,0.43
2023-04-19T19:53:59.887Z,0.50
2023-04-19T19:56:28.287Z,0.45
2023-04-19T20:01:23.884Z,0.22
2023-04-19T20:03:52.397Z,0.40
2023-04-19T20:08:51.402Z,0.30
2023-04-19T20:11:20.891Z,0.40
2023-04-19T20:13:48.439Z,0.40
2023-04-19T20:16:18.741Z,0.20
2023-04-19T20:18:49.241Z,0.30
2023-04-19T20:21:19.520Z,0.38
2023-04-19T20:23:47.200Z,0.30
2023-04-19T20:26:15.109Z,0.47
2023-04-19T20:28:44.267Z,0.40
2023-04-19T20:31:11.833Z,0.30
2023-04-19T20:33:39.526Z,0.30
2023-04-19T20:36:07.558Z,0.70
2023-04-19T20:38:36.019Z,0.47
2023-04-19T20:41:03.981Z,0.27
2023-04-19T20:43:31.653Z,0.20
2023-04-19T20:46:00.642Z,0.30
2023-04-19T20:48:28.372Z,0.40
2023-04-19T20:50:55.984Z,0.50
2023-04-19T20:53:24.133Z,0.40
2023-04-19T20:55:52.018Z,0.30
2023-04-19T20:58:19.573Z,0.20
2023-04-19T21:00:47.154Z,0.50
2023-04-19T21:03:17.469Z,0.40
2023-04-19T21:05:45.857Z,0.30
2023-04-19T21:08:15.109Z,0.55
2023-04-19T21:10:42.808Z,0.30
2023-04-19T21:13:10.664Z,0.43
2023-04-19T21:15:38.277Z,0.20
2023-04-19T21:18:06.494Z,0.27
2023-04-19T21:20:35.570Z,0.50
2023-04-19T21:23:03.551Z,0.30
2023-04-19T21:25:31.281Z,0.55
2023-04-19T21:27:58.824Z,0.40
2023-04-19T21:30:26.919Z,0.20
2023-04-19T21:32:54.831Z,0.30
2023-04-19T21:35:22.520Z,0.45
2023-04-19T21:37:51.493Z,0.50
2023-04-19T21:40:19.158Z,0.20
2023-04-19T21:42:46.724Z,0.30
2023-04-19T21:45:14.765Z,0.50
2023-04-19T21:47:42.548Z,0.30
2023-04-19T21:50:10.545Z,0.35
2023-04-19T21:52:38.134Z,0.20
2023-04-19T21:55:08.321Z,0.33
2023-04-19T21:57:37.658Z,0.40
2023-04-19T22:00:06.425Z,0.17
2023-04-19T22:02:34.321Z,0.13
2023-04-19T22:05:02.129Z,0.22
2023-04-19T22:07:31.877Z,0.40
2023-04-19T22:10:01.403Z,0.20
2023-04-19T22:12:30.997Z,0.55
2023-04-19T22:14:58.945Z,0.30
2023-04-19T22:17:29.525Z,0.25
2023-04-19T22:19:59.081Z,0.23
2023-04-19T22:22:26.659Z,0.30
2023-04-19T22:24:57.998Z,0.20
2023-04-19T22:27:25.999Z,0.20
2023-04-19T22:29:55.590Z,0.30
2023-04-19T22:32:23.391Z,0.20
2023-04-19T22:34:51.362Z,0.30
2023-04-19T22:37:18.962Z,0.22
2023-04-19T22:39:46.807Z,0.20
2023-04-19T22:42:16.228Z,0.20
2023-04-19T22:44:44.169Z,0.13
2023-04-19T22:47:14.639Z,0.10
2023-04-19T22:49:43.517Z,0.20
2023-04-19T22:52:11.966Z,0.20
2023-04-19T22:54:39.691Z,0.10
2023-04-19T22:57:07.352Z,0.10
2023-04-19T22:59:34.996Z,0.20
2023-04-19T23:02:02.731Z,0.20
2023-04-19T23:04:35.464Z,0.20
2023-04-19T23:07:03.806Z,0.20
2023-04-19T23:09:31.506Z,0.10
2023-04-19T23:12:00.874Z,0.20
2023-04-19T23:14:29.194Z,0.28
2023-04-19T23:16:57.157Z,0.20
2023-04-19T23:19:25.585Z,0.30
2023-04-19T23:21:54.619Z,0.40
2023-04-19T23:24:22.424Z,0.38
2023-04-19T23:26:50.075Z,0.28
2023-04-19T23:29:17.732Z,0.30
2023-04-19T23:31:47.216Z,0.20
2023-04-19T23:34:15.372Z,0.20
2023-04-19T23:36:42.991Z,0.30
2023-04-19T23:39:12.236Z,0.20
2023-04-19T23:41:39.926Z,0.10
2023-04-19T23:44:08.376Z,0.10
2023-04-19T23:46:36.373Z,0.13
2023-04-19T23:49:04.023Z,0.20
2023-04-19T23:51:32.961Z,0.10
2023-04-19T23:54:05.274Z,0.10
2023-04-19T23:56:34.377Z,0.10
2023-04-19T23:59:02.003Z,0.10
